Time;durP1;ratioP1;P1;durP2;ratioP2;P2;SDS_P1;SDS_P2;PMS_P1;PMS_P2;Temp;Humidity;BMP_temperature;BMP_pressure;BME280_temperature;BME280_humidity;BME280_pressure;Samples;Min_cycle;Max_cycle;Signal;HPM_P1;HPM_P2
2023/12/25 00:02:16;;;;;;;1999.90;999.90;;;;;;;;;;5068074;28;20191;-75
2023/12/25 00:04:43;;;;;;;1999.90;999.90;;;;;;;;;;5057974;28;20191;-76
2023/12/25 00:07:11;;;;;;;1999.90;999.90;;;;;;;;;;5068025;28;20201;-74
2023/12/25 00:09:40;;;;;;;1999.90;999.90;;;;;;;;;;5068418;28;20256;-76
2023/12/25 00:12:07;;;;;;;1999.90;999.90;;;;;;;;;;5036469;28;20195;-74
2023/12/25 00:14:35;;;;;;;1999.90;999.90;;;;;;;;;;5064617;28;20242;-74
2023/12/25 00:17:02;;;;;;;1999.90;999.90;;;;;;;;;;5048653;28;20198;-74
2023/12/25 00:19:30;;;;;;;1999.90;999.90;;;;;;;;;;5064810;28;20277;-74
2023/12/25 00:21:58;;;;;;;1999.90;999.90;;;;;;;;;;5049386;28;20555;-75
2023/12/25 00:24:25;;;;;;;1999.90;999.90;;;;;;;;;;5049607;28;20369;-75
2023/12/25 00:26:54;;;;;;;1999.90;999.90;;;;;;;;;;5049091;28;20195;-73
2023/12/25 00:29:21;;;;;;;1999.90;999.90;;;;;;;;;;5067527;28;20194;-74
2023/12/25 00:31:49;;;;;;;1999.90;999.90;;;;;;;;;;5057516;28;20216;-80
2023/12/25 00:34:16;;;;;;;1999.90;999.90;;;;;;;;;;5067215;28;20215;-78
2023/12/25 00:36:43;;;;;;;1999.90;999.90;;;;;;;;;;5068125;28;20198;-75
2023/12/25 00:39:11;;;;;;;1999.90;999.90;;;;;;;;;;5058227;28;20281;-75
2023/12/25 00:41:38;;;;;;;1999.90;999.90;;;;;;;;;;5049132;28;20195;-76
2023/12/25 00:44:07;;;;;;;1999.90;999.90;;;;;;;;;;5066948;28;20649;-75
2023/12/25 00:46:35;;;;;;;1999.90;999.90;;;;;;;;;;5068819;28;20566;-76
2023/12/25 00:49:02;;;;;;;1999.90;999.90;;;;;;;;;;5076239;28;20212;-79
2023/12/25 00:51:29;;;;;;;1999.90;999.90;;;;;;;;;;5049571;28;20183;-76
2023/12/25 00:53:57;;;;;;;1999.90;999.90;;;;;;;;;;5049605;28;20252;-77
2023/12/25 00:56:25;;;;;;;1999.90;999.90;;;;;;;;;;5066985;28;20230;-79
2023/12/25 00:58:52;;;;;;;1999.90;999.90;;;;;;;;;;5049820;28;20217;-78
2023/12/25 01:01:21;;;;;;;1999.90;999.90;;;;;;;;;;5049327;28;20203;-77
2023/12/25 01:03:48;;;;;;;1999.90;999.90;;;;;;;;;;5068054;28;20195;-78
2023/12/25 01:06:15;;;;;;;1999.90;999.90;;;;;;;;;;5049011;28;20202;-78
2023/12/25 01:08:45;;;;;;;1999.90;999.90;;;;;;;;;;5067776;28;20191;-76
2023/12/25 01:11:12;;;;;;;1999.90;999.90;;;;;;;;;;5054296;28;20209;-79
2023/12/25 01:13:40;;;;;;;1999.90;999.90;;;;;;;;;;5068497;28;20241;-78
2023/12/25 01:16:07;;;;;;;1999.90;999.90;;;;;;;;;;5049011;28;20232;-77
2023/12/25 01:18:36;;;;;;;1999.90;999.90;;;;;;;;;;5066919;28;20195;-76
2023/12/25 01:21:03;;;;;;;1999.90;999.90;;;;;;;;;;5066777;28;20201;-77
2023/12/25 01:23:30;;;;;;;1999.90;999.90;;;;;;;;;;5069702;28;20278;-78
2023/12/25 01:25:58;;;;;;;1999.90;999.90;;;;;;;;;;5065284;28;20220;-79
2023/12/25 01:28:25;;;;;;;1999.90;999.90;;;;;;;;;;5049066;28;20646;-78
2023/12/25 01:30:52;;;;;;;1999.90;999.90;;;;;;;;;;5069727;28;20190;-79
2023/12/25 01:33:20;;;;;;;1999.90;999.90;;;;;;;;;;5066900;28;20221;-79
2023/12/25 01:35:49;;;;;;;1999.90;999.90;;;;;;;;;;5049324;28;20202;-78
2023/12/25 01:38:16;;;;;;;1999.90;999.90;;;;;;;;;;5066909;28;20201;-77
2023/12/25 01:40:45;;;;;;;1999.90;999.90;;;;;;;;;;5049481;28;20203;-80
2023/12/25 01:43:12;;;;;;;1999.90;999.90;;;;;;;;;;5066655;28;20187;-75
2023/12/25 01:45:40;;;;;;;1999.90;999.90;;;;;;;;;;5049001;28;20210;-81
2023/12/25 01:48:07;;;;;;;1999.90;999.90;;;;;;;;;;5067791;28;20274;-78
2023/12/25 01:50:35;;;;;;;1999.90;999.90;;;;;;;;;;5067727;28;20237;-79
2023/12/25 01:53:05;;;;;;;1999.90;999.90;;;;;;;;;;5066839;28;20224;-78
2023/12/25 01:55:33;;;;;;;1999.90;999.90;;;;;;;;;;5069037;28;20704;-83
2023/12/25 01:58:00;;;;;;;1999.90;999.90;;;;;;;;;;5068597;28;20201;-80
2023/12/25 02:00:27;;;;;;;1999.90;999.90;;;;;;;;;;5069101;28;20209;-81
2023/12/25 02:02:55;;;;;;;1999.90;999.90;;;;;;;;;;5067978;28;20195;-82
2023/12/25 02:05:22;;;;;;;1999.90;999.90;;;;;;;;;;5067144;28;20202;-78
2023/12/25 02:07:50;;;;;;;1999.90;999.90;;;;;;;;;;5067203;28;20193;-80
2023/12/25 02:10:28;;;;;;;1999.90;999.90;;;;;;;;;;5049023;28;20205;-79
2023/12/25 02:12:55;;;;;;;1999.90;999.90;;;;;;;;;;5068407;28;20190;-80
2023/12/25 02:15:23;;;;;;;1999.90;999.90;;;;;;;;;;5049382;28;20234;-79
2023/12/25 02:17:51;;;;;;;1999.90;999.90;;;;;;;;;;5068055;28;20190;-81
2023/12/25 02:20:19;;;;;;;1999.90;999.90;;;;;;;;;;5068026;28;20195;-80
2023/12/25 02:22:46;;;;;;;1999.90;999.90;;;;;;;;;;5066972;28;20741;-80
2023/12/25 02:25:14;;;;;;;1999.90;999.90;;;;;;;;;;5032945;28;20514;-79
2023/12/25 02:27:43;;;;;;;1999.90;999.90;;;;;;;;;;5051680;28;20207;-78
2023/12/25 02:30:11;;;;;;;1999.90;999.90;;;;;;;;;;5050939;28;20268;-80
2023/12/25 02:32:38;;;;;;;1999.90;999.90;;;;;;;;;;5066527;28;20613;-82
2023/12/25 02:35:06;;;;;;;1999.90;999.90;;;;;;;;;;5065613;28;20226;-79
2023/12/25 02:37:33;;;;;;;1999.90;999.90;;;;;;;;;;5066982;28;20286;-86
2023/12/25 02:40:01;;;;;;;1999.90;999.90;;;;;;;;;;5048259;28;20190;-81
2023/12/25 02:42:28;;;;;;;1999.90;999.90;;;;;;;;;;5049270;28;20681;-79
2023/12/25 02:44:57;;;;;;;1999.90;999.90;;;;;;;;;;5067733;28;20515;-78
2023/12/25 02:47:24;;;;;;;1999.90;999.90;;;;;;;;;;5065794;28;20274;-81
2023/12/25 02:49:52;;;;;;;1999.90;999.90;;;;;;;;;;5065804;28;20193;-79
2023/12/25 02:52:19;;;;;;;1999.90;999.90;;;;;;;;;;5065500;28;20209;-80
2023/12/25 02:54:46;;;;;;;1999.90;999.90;;;;;;;;;;5066401;28;20213;-77
2023/12/25 02:57:14;;;;;;;1999.90;999.90;;;;;;;;;;5049765;28;20202;-85
2023/12/25 02:59:41;;;;;;;1999.90;999.90;;;;;;;;;;5062408;28;20191;-83
2023/12/25 03:02:10;;;;;;;1999.90;999.90;;;;;;;;;;5052037;28;20198;-81
2023/12/25 03:04:38;;;;;;;1999.90;999.90;;;;;;;;;;5052081;28;20191;-81
2023/12/25 03:07:05;;;;;;;1999.90;999.90;;;;;;;;;;5069547;28;20289;-83
2023/12/25 03:09:32;;;;;;;1999.90;999.90;;;;;;;;;;5051250;28;20198;-80
2023/12/25 03:12:00;;;;;;;1999.90;999.90;;;;;;;;;;5069449;28;20209;-82
2023/12/25 03:14:27;;;;;;;1999.90;999.90;;;;;;;;;;5066628;28;20263;-79
2023/12/25 03:16:55;;;;;;;1999.90;999.90;;;;;;;;;;5069791;28;20199;-80
2023/12/25 03:19:22;;;;;;;1999.90;999.90;;;;;;;;;;5051274;28;20281;-83
2023/12/25 03:21:50;;;;;;;1999.90;999.90;;;;;;;;;;5051436;28;20230;-84
2023/12/25 03:24:17;;;;;;;1999.90;999.90;;;;;;;;;;5051837;28;20195;-81
2023/12/25 03:26:47;;;;;;;1999.90;999.90;;;;;;;;;;5052154;28;20725;-84
2023/12/25 03:29:16;;;;;;;1999.90;999.90;;;;;;;;;;5053209;28;20215;-82
2023/12/25 03:31:44;;;;;;;1999.90;999.90;;;;;;;;;;5069839;28;20573;-85
2023/12/25 03:34:15;;;;;;;1999.90;999.90;;;;;;;;;;5053354;28;20600;-81
2023/12/25 03:36:44;;;;;;;1999.90;999.90;;;;;;;;;;5053780;28;20194;-81
2023/12/25 03:39:11;;;;;;;1999.90;999.90;;;;;;;;;;5077844;28;20198;-83
2023/12/25 03:41:40;;;;;;;1999.90;999.90;;;;;;;;;;5071293;28;20190;-81
2023/12/25 03:44:07;;;;;;;1999.90;999.90;;;;;;;;;;5038626;28;20218;-84
2023/12/25 03:46:35;;;;;;;1999.90;999.90;;;;;;;;;;5039752;28;20199;-81
2023/12/25 03:49:02;;;;;;;1999.90;999.90;;;;;;;;;;5054252;28;20194;-82
2023/12/25 03:51:29;;;;;;;1999.90;999.90;;;;;;;;;;5038221;28;20195;-81
2023/12/25 03:53:57;;;;;;;1999.90;999.90;;;;;;;;;;5076807;28;20194;-80
2023/12/25 03:56:26;;;;;;;1999.90;999.90;;;;;;;;;;5035054;28;20237;-87
2023/12/25 03:58:53;;;;;;;1999.90;999.90;;;;;;;;;;5055296;28;20206;-79
2023/12/25 04:01:21;;;;;;;1999.90;999.90;;;;;;;;;;5078238;28;20195;-78
2023/12/25 04:03:48;;;;;;;1999.90;999.90;;;;;;;;;;5071850;28;20225;-80
2023/12/25 04:06:23;;;;;;;1999.90;999.90;;;;;;;;;;5070581;28;20282;-84
2023/12/25 04:08:51;;;;;;;1999.90;999.90;;;;;;;;;;5053199;28;20198;-87
2023/12/25 04:11:23;;;;;;;1999.90;999.90;;;;;;;;;;5069175;28;20197;-83
2023/12/25 04:13:53;;;;;;;1999.90;999.90;;;;;;;;;;5069795;28;20179;-82
2023/12/25 04:16:21;;;;;;;1999.90;999.90;;;;;;;;;;5051162;28;20749;-76
2023/12/25 04:18:48;;;;;;;1999.90;999.90;;;;;;;;;;5069171;28;20198;-81
2023/12/25 04:21:23;;;;;;;1999.90;999.90;;;;;;;;;;5050356;28;20198;-79
2023/12/25 04:23:51;;;;;;;1999.90;999.90;;;;;;;;;;5068822;28;20195;-78
2023/12/25 04:26:18;;;;;;;1999.90;999.90;;;;;;;;;;5032294;28;20719;-77
2023/12/25 04:28:48;;;;;;;1999.90;999.90;;;;;;;;;;5067896;28;20213;-77
2023/12/25 04:31:16;;;;;;;1999.90;999.90;;;;;;;;;;5068060;28;20280;-78
2023/12/25 04:33:43;;;;;;;1999.90;999.90;;;;;;;;;;5049191;28;20614;-78
2023/12/25 04:36:11;;;;;;;1999.90;999.90;;;;;;;;;;5067865;28;20218;-79
2023/12/25 04:38:39;;;;;;;1999.90;999.90;;;;;;;;;;5049489;28;20201;-77
2023/12/25 04:41:06;;;;;;;1999.90;999.90;;;;;;;;;;5049307;28;20214;-78
2023/12/25 04:43:33;;;;;;;1999.90;999.90;;;;;;;;;;5067737;28;20561;-78
2023/12/25 04:46:03;;;;;;;1999.90;999.90;;;;;;;;;;5049740;28;20194;-77
2023/12/25 04:48:30;;;;;;;1999.90;999.90;;;;;;;;;;5067941;28;20527;-77
2023/12/25 04:50:58;;;;;;;1999.90;999.90;;;;;;;;;;5067182;28;20195;-80
2023/12/25 04:53:24;;;;;;;1999.90;999.90;;;;;;;;;;5049668;28;20680;-79
2023/12/25 04:55:52;;;;;;;1999.90;999.90;;;;;;;;;;5067081;28;20214;-79
2023/12/25 04:58:20;;;;;;;1999.90;999.90;;;;;;;;;;5067700;28;20218;-78
2023/12/25 05:00:47;;;;;;;1999.90;999.90;;;;;;;;;;5048869;28;20210;-78
2023/12/25 05:03:16;;;;;;;1999.90;999.90;;;;;;;;;;5067697;28;20200;-79
2023/12/25 05:05:43;;;;;;;1999.90;999.90;;;;;;;;;;5068150;28;20565;-79
2023/12/25 05:08:10;;;;;;;1999.90;999.90;;;;;;;;;;5049983;28;20206;-79
2023/12/25 05:10:38;;;;;;;1999.90;999.90;;;;;;;;;;5050163;28;20200;-78
2023/12/25 05:13:05;;;;;;;1999.90;999.90;;;;;;;;;;5050356;28;20222;-79
2023/12/25 05:15:32;;;;;;;1999.90;999.90;;;;;;;;;;5049097;28;20333;-83
2023/12/25 05:18:00;;;;;;;1999.90;999.90;;;;;;;;;;5068892;28;20202;-81
2023/12/25 05:20:28;;;;;;;1999.90;999.90;;;;;;;;;;5047953;28;20203;-81
2023/12/25 05:22:56;;;;;;;1999.90;999.90;;;;;;;;;;5050151;28;20645;-80
2023/12/25 05:25:23;;;;;;;1999.90;999.90;;;;;;;;;;5051968;28;20202;-83
2023/12/25 05:27:51;;;;;;;1999.90;999.90;;;;;;;;;;5049522;28;20204;-79
2023/12/25 05:30:18;;;;;;;1999.90;999.90;;;;;;;;;;5067913;28;20193;-81
2023/12/25 05:32:45;;;;;;;1999.90;999.90;;;;;;;;;;5052644;28;20202;-81
2023/12/25 05:35:13;;;;;;;1999.90;999.90;;;;;;;;;;5050598;28;20222;-81
2023/12/25 05:37:42;;;;;;;1999.90;999.90;;;;;;;;;;5068339;28;20672;-83
2023/12/25 05:40:10;;;;;;;1999.90;999.90;;;;;;;;;;5068431;28;20218;-81
2023/12/25 05:42:37;;;;;;;1999.90;999.90;;;;;;;;;;5067101;28;20206;-81
2023/12/25 05:45:04;;;;;;;1999.90;999.90;;;;;;;;;;5054484;28;20194;-80
2023/12/25 05:47:32;;;;;;;1999.90;999.90;;;;;;;;;;5067392;28;20194;-81
2023/12/25 05:49:59;;;;;;;1999.90;999.90;;;;;;;;;;5067633;28;20205;-80
2023/12/25 05:52:26;;;;;;;1999.90;999.90;;;;;;;;;;5067801;28;20202;-83
2023/12/25 05:54:55;;;;;;;1999.90;999.90;;;;;;;;;;5049328;28;20943;-82
2023/12/25 05:57:23;;;;;;;1999.90;999.90;;;;;;;;;;5069683;28;20194;-81
2023/12/25 05:59:50;;;;;;;1999.90;999.90;;;;;;;;;;5067062;28;20634;-83
2023/12/25 06:02:17;;;;;;;1999.90;999.90;;;;;;;;;;5049319;28;20203;-82
2023/12/25 06:04:46;;;;;;;1999.90;999.90;;;;;;;;;;5067006;28;20199;-80
2023/12/25 06:07:13;;;;;;;1999.90;999.90;;;;;;;;;;5067089;28;20646;-82
2023/12/25 06:09:41;;;;;;;1999.90;999.90;;;;;;;;;;5049627;28;20271;-84
2023/12/25 06:12:10;;;;;;;1999.90;999.90;;;;;;;;;;5067615;28;20269;-84
2023/12/25 06:14:37;;;;;;;1999.90;999.90;;;;;;;;;;5067623;28;20201;-81
2023/12/25 06:17:05;;;;;;;1999.90;999.90;;;;;;;;;;5067371;28;20247;-84
2023/12/25 06:19:32;;;;;;;1999.90;999.90;;;;;;;;;;5068077;28;20210;-83
2023/12/25 06:22:00;;;;;;;1999.90;999.90;;;;;;;;;;5033124;28;20208;-84
2023/12/25 06:24:27;;;;;;;1999.90;999.90;;;;;;;;;;5067479;28;20198;-80
2023/12/25 06:26:55;;;;;;;1999.90;999.90;;;;;;;;;;5064463;28;20199;-81
2023/12/25 06:29:23;;;;;;;1999.90;999.90;;;;;;;;;;5067669;28;20206;-85
2023/12/25 06:31:51;;;;;;;1999.90;999.90;;;;;;;;;;5067000;28;20194;-83
2023/12/25 06:34:18;;;;;;;1999.90;999.90;;;;;;;;;;5067911;28;20286;-79
2023/12/25 06:36:45;;;;;;;1999.90;999.90;;;;;;;;;;5035581;28;20700;-80
2023/12/25 06:39:13;;;;;;;1999.90;999.90;;;;;;;;;;5067554;28;20206;-83
2023/12/25 06:41:40;;;;;;;1999.90;999.90;;;;;;;;;;5061319;28;21640;-79
2023/12/25 06:44:08;;;;;;;1999.90;999.90;;;;;;;;;;5068385;28;20260;-83
2023/12/25 06:46:37;;;;;;;1999.90;999.90;;;;;;;;;;5067561;28;20588;-79
2023/12/25 06:49:04;;;;;;;1999.90;999.90;;;;;;;;;;5079595;28;20755;-84
2023/12/25 06:51:31;;;;;;;1999.90;999.90;;;;;;;;;;5038232;28;20197;-83
2023/12/25 06:53:59;;;;;;;1999.90;999.90;;;;;;;;;;5075849;28;20195;-78
2023/12/25 06:56:26;;;;;;;1999.90;999.90;;;;;;;;;;5066673;28;20226;-86
2023/12/25 06:58:54;;;;;;;1999.90;999.90;;;;;;;;;;5066853;28;20206;-79
2023/12/25 07:01:24;;;;;;;1999.90;999.90;;;;;;;;;;5066575;28;20199;-83
2023/12/25 07:03:53;;;;;;;1999.90;999.90;;;;;;;;;;5066689;28;20197;-79
2023/12/25 07:06:20;;;;;;;1999.90;999.90;;;;;;;;;;5068296;28;20207;-85
2023/12/25 07:08:48;;;;;;;1999.90;999.90;;;;;;;;;;5032200;28;20634;-81
2023/12/25 07:11:15;;;;;;;1999.90;999.90;;;;;;;;;;5067297;28;20195;-81
2023/12/25 07:13:43;;;;;;;1999.90;999.90;;;;;;;;;;5049432;28;20187;-83
2023/12/25 07:16:10;;;;;;;1999.90;999.90;;;;;;;;;;5066976;28;20249;-80
2023/12/25 07:18:38;;;;;;;1999.90;999.90;;;;;;;;;;5066665;28;20214;-83
2023/12/25 07:21:07;;;;;;;1999.90;999.90;;;;;;;;;;5048410;28;20289;-80
2023/12/25 07:23:34;;;;;;;1999.90;999.90;;;;;;;;;;5068597;28;20193;-81
2023/12/25 07:26:02;;;;;;;1999.90;999.90;;;;;;;;;;5048489;28;20288;-82
2023/12/25 07:28:29;;;;;;;1999.90;999.90;;;;;;;;;;5047983;28;20569;-82
2023/12/25 07:30:57;;;;;;;1999.90;999.90;;;;;;;;;;5064965;28;20650;-80
2023/12/25 07:33:24;;;;;;;1999.90;999.90;;;;;;;;;;5052410;28;20218;-79
2023/12/25 07:35:52;;;;;;;1999.90;999.90;;;;;;;;;;5048076;28;20291;-80
2023/12/25 07:38:21;;;;;;;1999.90;999.90;;;;;;;;;;5045276;28;20646;-80
2023/12/25 07:40:49;;;;;;;1999.90;999.90;;;;;;;;;;5047580;28;20683;-84
2023/12/25 07:43:17;;;;;;;1999.90;999.90;;;;;;;;;;5067853;28;20191;-80
2023/12/25 07:45:44;;;;;;;1999.90;999.90;;;;;;;;;;5051636;28;20388;-80
2023/12/25 07:48:11;;;;;;;1999.90;999.90;;;;;;;;;;5051239;28;20206;-83
2023/12/25 07:50:39;;;;;;;1999.90;999.90;;;;;;;;;;5069070;28;20191;-82
2023/12/25 07:53:06;;;;;;;1999.90;999.90;;;;;;;;;;5050935;28;20197;-80
2023/12/25 07:55:38;;;;;;;1999.90;999.90;;;;;;;;;;5051341;28;20231;-80
2023/12/25 07:58:05;;;;;;;1999.90;999.90;;;;;;;;;;5069941;28;20202;-82
2023/12/25 08:00:33;;;;;;;1999.90;999.90;;;;;;;;;;5027957;28;20195;-81
2023/12/25 08:03:00;;;;;;;1999.90;999.90;;;;;;;;;;5069930;28;20194;-82
2023/12/25 08:05:28;;;;;;;1999.90;999.90;;;;;;;;;;5070245;28;20646;-81
2023/12/25 08:07:55;;;;;;;1999.90;999.90;;;;;;;;;;5069504;28;20206;-81
2023/12/25 08:10:22;;;;;;;1999.90;999.90;;;;;;;;;;5069454;28;20195;-83
2023/12/25 08:12:51;;;;;;;1999.90;999.90;;;;;;;;;;5079216;28;20187;-81
2023/12/25 08:15:19;;;;;;;1999.90;999.90;;;;;;;;;;5080579;28;20233;-82
2023/12/25 08:17:46;;;;;;;1999.90;999.90;;;;;;;;;;5057832;28;20187;-81
2023/12/25 08:20:13;;;;;;;1999.90;999.90;;;;;;;;;;5082693;28;20189;-81
2023/12/25 08:22:41;;;;;;;1999.90;999.90;;;;;;;;;;5071265;28;20187;-82
2023/12/25 08:25:08;;;;;;;1999.90;999.90;;;;;;;;;;5052098;28;20209;-82
2023/12/25 08:27:36;;;;;;;1999.90;999.90;;;;;;;;;;5051206;28;20202;-80
2023/12/25 08:30:05;;;;;;;1999.90;999.90;;;;;;;;;;5050391;28;20559;-81
2023/12/25 08:32:33;;;;;;;1999.90;999.90;;;;;;;;;;5068911;28;20190;-80
2023/12/25 08:35:00;;;;;;;1999.90;999.90;;;;;;;;;;5068734;28;20201;-80
2023/12/25 08:37:27;;;;;;;1999.90;999.90;;;;;;;;;;5051829;28;20340;-79
2023/12/25 08:39:55;;;;;;;1999.90;999.90;;;;;;;;;;5068795;28;20199;-81
2023/12/25 08:42:22;;;;;;;1999.90;999.90;;;;;;;;;;5069490;28;20660;-80
2023/12/25 08:44:49;;;;;;;1999.90;999.90;;;;;;;;;;5068676;28;20646;-80
2023/12/25 08:47:18;;;;;;;1999.90;999.90;;;;;;;;;;5051620;28;20191;-81
2023/12/25 08:49:47;;;;;;;1999.90;999.90;;;;;;;;;;5069272;28;20364;-82
2023/12/25 08:52:15;;;;;;;1999.90;999.90;;;;;;;;;;5069528;28;20224;-83
2023/12/25 08:54:42;;;;;;;1999.90;999.90;;;;;;;;;;5066180;28;20642;-82
2023/12/25 08:57:09;;;;;;;1999.90;999.90;;;;;;;;;;5050657;28;20217;-83
2023/12/25 08:59:37;;;;;;;1999.90;999.90;;;;;;;;;;5051423;28;20195;-81
2023/12/25 09:02:04;;;;;;;1999.90;999.90;;;;;;;;;;5068808;28;20187;-83
2023/12/25 09:04:33;;;;;;;1999.90;999.90;;;;;;;;;;5055964;28;20658;-83
2023/12/25 09:07:00;;;;;;;1999.90;999.90;;;;;;;;;;5051236;28;20301;-81
2023/12/25 09:09:28;;;;;;;1999.90;999.90;;;;;;;;;;5050679;28;20558;-81
2023/12/25 09:11:56;;;;;;;1999.90;999.90;;;;;;;;;;5050818;28;20199;-81
2023/12/25 09:14:23;;;;;;;1999.90;999.90;;;;;;;;;;5051162;28;20222;-82
2023/12/25 09:16:50;;;;;;;1999.90;999.90;;;;;;;;;;5050819;28;20723;-82
2023/12/25 09:19:18;;;;;;;1999.90;999.90;;;;;;;;;;5069239;28;20195;-82
2023/12/25 09:21:46;;;;;;;1999.90;999.90;;;;;;;;;;5050544;28;20300;-82
2023/12/25 09:24:14;;;;;;;1999.90;999.90;;;;;;;;;;5069461;28;20538;-83
2023/12/25 09:26:41;;;;;;;1999.90;999.90;;;;;;;;;;5076090;28;20209;-82
2023/12/25 09:29:11;;;;;;;1999.90;999.90;;;;;;;;;;5063521;28;20705;-83
2023/12/25 09:31:38;;;;;;;1999.90;999.90;;;;;;;;;;5055580;28;20195;-82
2023/12/25 09:34:06;;;;;;;1999.90;999.90;;;;;;;;;;5043285;28;20195;-81
2023/12/25 09:36:33;;;;;;;1999.90;999.90;;;;;;;;;;5050552;28;20256;-82
2023/12/25 09:39:02;;;;;;;1999.90;999.90;;;;;;;;;;5065015;28;20187;-82
2023/12/25 09:41:32;;;;;;;1999.90;999.90;;;;;;;;;;5056915;28;20236;-82
2023/12/25 09:44:00;;;;;;;1999.90;999.90;;;;;;;;;;5068815;28;20222;-82
2023/12/25 09:46:29;;;;;;;1999.90;999.90;;;;;;;;;;5059858;28;20678;-82
2023/12/25 09:48:56;;;;;;;1999.90;999.90;;;;;;;;;;5075268;28;20213;-83
2023/12/25 09:51:24;;;;;;;1999.90;999.90;;;;;;;;;;5053091;28;20581;-82
2023/12/25 09:53:51;;;;;;;1999.90;999.90;;;;;;;;;;5072724;28;20189;-81
2023/12/25 09:56:22;;;;;;;1999.90;999.90;;;;;;;;;;5055732;28;20287;-82
2023/12/25 09:58:50;;;;;;;1999.90;999.90;;;;;;;;;;5051681;28;20198;-82
2023/12/25 10:01:17;;;;;;;1999.90;999.90;;;;;;;;;;5048009;28;20214;-84
2023/12/25 10:03:46;;;;;;;1999.90;999.90;;;;;;;;;;5068870;28;20201;-83
2023/12/25 10:06:13;;;;;;;1999.90;999.90;;;;;;;;;;5067983;28;20206;-84
2023/12/25 10:08:40;;;;;;;1999.90;999.90;;;;;;;;;;5044314;28;20212;-84
2023/12/25 10:11:13;;;;;;;1999.90;999.90;;;;;;;;;;5049766;28;20209;-83
2023/12/25 10:13:42;;;;;;;1999.90;999.90;;;;;;;;;;5068735;28;20183;-83
2023/12/25 10:16:09;;;;;;;1999.90;999.90;;;;;;;;;;5072414;28;20699;-84
2023/12/25 10:18:38;;;;;;;1999.90;999.90;;;;;;;;;;5056547;28;20201;-83
2023/12/25 10:21:06;;;;;;;1999.90;999.90;;;;;;;;;;5033958;28;20205;-84
2023/12/25 10:23:34;;;;;;;1999.90;999.90;;;;;;;;;;5080198;28;20199;-82
2023/12/25 10:26:03;;;;;;;1999.90;999.90;;;;;;;;;;5056732;28;20203;-83
2023/12/25 10:28:32;;;;;;;1999.90;999.90;;;;;;;;;;5080283;28;20226;-84
2023/12/25 10:31:02;;;;;;;1999.90;999.90;;;;;;;;;;5068872;28;20271;-83
2023/12/25 10:33:28;;;;;;;1999.90;999.90;;;;;;;;;;5050999;28;20205;-84
2023/12/25 10:36:03;;;;;;;1999.90;999.90;;;;;;;;;;5034984;28;20193;-84
2023/12/25 10:38:33;;;;;;;1999.90;999.90;;;;;;;;;;5034726;28;20189;-85
2023/12/25 10:41:17;;;;;;;1999.90;999.90;;;;;;;;;;5068535;28;20227;-85
2023/12/25 10:43:45;;;;;;;1999.90;999.90;;;;;;;;;;5033414;28;20195;-82
2023/12/25 10:46:14;;;;;;;1999.90;999.90;;;;;;;;;;5049206;28;20228;-80
2023/12/25 10:48:43;;;;;;;1999.90;999.90;;;;;;;;;;5067923;28;20194;-84
2023/12/25 10:51:10;;;;;;;1999.90;999.90;;;;;;;;;;5061051;28;20218;-82
2023/12/25 10:53:37;;;;;;;1999.90;999.90;;;;;;;;;;5067278;28;20183;-79
2023/12/25 10:56:06;;;;;;;1999.90;999.90;;;;;;;;;;5066626;28;20208;-81
2023/12/25 10:58:33;;;;;;;1999.90;999.90;;;;;;;;;;5047012;28;20218;-85
2023/12/25 11:01:01;;;;;;;1999.90;999.90;;;;;;;;;;5061559;28;20297;-83
2023/12/25 11:03:30;;;;;;;1999.90;999.90;;;;;;;;;;5023466;28;20266;-81
2023/12/25 11:05:58;;;;;;;1999.90;999.90;;;;;;;;;;5049357;28;20546;-82
2023/12/25 11:08:26;;;;;;;1999.90;999.90;;;;;;;;;;5067131;28;20278;-82
2023/12/25 11:10:54;;;;;;;1999.90;999.90;;;;;;;;;;5067512;28;20567;-83
2023/12/25 11:13:21;;;;;;;1999.90;999.90;;;;;;;;;;5032863;28;20195;-82
2023/12/25 11:15:49;;;;;;;1999.90;999.90;;;;;;;;;;5066961;28;20237;-83
2023/12/25 11:18:18;;;;;;;1999.90;999.90;;;;;;;;;;5070742;28;20703;-81
2023/12/25 11:21:00;;;;;;;1999.90;999.90;;;;;;;;;;5053327;28;20249;-81
2023/12/25 11:23:30;;;;;;;1999.90;999.90;;;;;;;;;;5071062;28;20223;-85
2023/12/25 11:25:58;;;;;;;1999.90;999.90;;;;;;;;;;5072698;28;20191;-82
2023/12/25 11:28:26;;;;;;;1999.90;999.90;;;;;;;;;;5072539;28;20198;-82
2023/12/25 11:30:53;;;;;;;1999.90;999.90;;;;;;;;;;5072403;28;20285;-83
2023/12/25 11:33:21;;;;;;;1999.90;999.90;;;;;;;;;;5054631;28;20189;-82
2023/12/25 11:35:48;;;;;;;1999.90;999.90;;;;;;;;;;5070918;28;20195;-80
2023/12/25 11:38:46;;;;;;;1999.90;999.90;;;;;;;;;;5035106;28;20325;-82
2023/12/25 11:41:17;;;;;;;1999.90;999.90;;;;;;;;;;5064651;28;20190;-82
2023/12/25 11:43:45;;;;;;;1999.90;999.90;;;;;;;;;;5054962;28;20243;-86
2023/12/25 11:46:16;;;;;;;1999.90;999.90;;;;;;;;;;5056299;28;20212;-82
2023/12/25 11:48:45;;;;;;;1999.90;999.90;;;;;;;;;;5058237;28;20181;-86
2023/12/25 11:51:23;;;;;;;1999.90;999.90;;;;;;;;;;5046671;28;20206;-86
2023/12/25 11:53:53;;;;;;;1999.90;999.90;;;;;;;;;;5071822;28;20198;-83
2023/12/25 11:56:21;;;;;;;1999.90;999.90;;;;;;;;;;5043092;28;20183;-82
2023/12/25 11:58:48;;;;;;;1999.90;999.90;;;;;;;;;;5062494;28;20226;-82
2023/12/25 12:01:18;;;;;;;1999.90;999.90;;;;;;;;;;5045526;28;20191;-81
2023/12/25 12:03:46;;;;;;;1999.90;999.90;;;;;;;;;;5071574;28;20212;-82
2023/12/25 12:06:15;;;;;;;1999.90;999.90;;;;;;;;;;5070303;28;20205;-85
2023/12/25 12:08:42;;;;;;;1999.90;999.90;;;;;;;;;;5053991;28;20273;-85
2023/12/25 12:11:11;;;;;;;1999.90;999.90;;;;;;;;;;5052625;28;20646;-85
2023/12/25 12:13:39;;;;;;;1999.90;999.90;;;;;;;;;;5071649;28;20202;-85
2023/12/25 12:16:07;;;;;;;1999.90;999.90;;;;;;;;;;5047276;28;20248;-88
2023/12/25 12:18:35;;;;;;;1999.90;999.90;;;;;;;;;;5053436;28;20217;-84
2023/12/25 12:21:03;;;;;;;1999.90;999.90;;;;;;;;;;5071522;28;20199;-83
2023/12/25 12:23:31;;;;;;;1999.90;999.90;;;;;;;;;;5059098;28;20191;-84
2023/12/25 12:25:58;;;;;;;1999.90;999.90;;;;;;;;;;5053201;28;20202;-84
2023/12/25 12:28:27;;;;;;;1999.90;999.90;;;;;;;;;;5068452;28;20217;-82
2023/12/25 12:30:55;;;;;;;1999.90;999.90;;;;;;;;;;5051288;28;20272;-83
2023/12/25 12:33:22;;;;;;;1999.90;999.90;;;;;;;;;;5063412;28;20277;-77
2023/12/25 12:35:49;;;;;;;1999.90;999.90;;;;;;;;;;5050396;28;20196;-81
2023/12/25 12:38:17;;;;;;;1999.90;999.90;;;;;;;;;;5035030;28;20242;-81
2023/12/25 12:40:44;;;;;;;1999.90;999.90;;;;;;;;;;5079942;28;20559;-82
2023/12/25 12:43:13;;;;;;;1999.90;999.90;;;;;;;;;;5080919;28;20198;-83
2023/12/25 12:45:42;;;;;;;1999.90;999.90;;;;;;;;;;5069856;28;20214;-83
2023/12/25 12:48:10;;;;;;;1999.90;999.90;;;;;;;;;;5054419;28;20195;-82
2023/12/25 12:50:37;;;;;;;1999.90;999.90;;;;;;;;;;5074726;28;20211;-83
2023/12/25 12:53:05;;;;;;;1999.90;999.90;;;;;;;;;;5069750;28;20194;-81
2023/12/25 12:55:36;;;;;;;1999.90;999.90;;;;;;;;;;5052507;28;20569;-81
2023/12/25 12:58:04;;;;;;;1999.90;999.90;;;;;;;;;;5034109;28;20234;-82
2023/12/25 13:00:32;;;;;;;1999.90;999.90;;;;;;;;;;5051226;28;20199;-82
2023/12/25 13:03:00;;;;;;;1999.90;999.90;;;;;;;;;;5051146;28;20282;-83
2023/12/25 13:05:28;;;;;;;1999.90;999.90;;;;;;;;;;5068398;28;20603;-81
2023/12/25 13:07:55;;;;;;;1999.90;999.90;;;;;;;;;;5054487;28;20256;-83
2023/12/25 13:10:23;;;;;;;1999.90;999.90;;;;;;;;;;5050317;28;20329;-83
2023/12/25 13:12:50;;;;;;;1999.90;999.90;;;;;;;;;;5068871;28;20271;-81
2023/12/25 13:15:18;;;;;;;1999.90;999.90;;;;;;;;;;5058567;28;20202;-82
2023/12/25 13:17:45;;;;;;;1999.90;999.90;;;;;;;;;;5079453;28;20294;-80
2023/12/25 13:20:15;;;;;;;1999.90;999.90;;;;;;;;;;5069746;28;20625;-84
2023/12/25 13:22:42;;;;;;;1999.90;999.90;;;;;;;;;;5039436;28;20203;-82
2023/12/25 13:25:10;;;;;;;1999.90;999.90;;;;;;;;;;5050500;28;20218;-84
2023/12/25 13:27:37;;;;;;;1999.90;999.90;;;;;;;;;;5050446;28;20268;-81
2023/12/25 13:30:06;;;;;;;1999.90;999.90;;;;;;;;;;5069075;28;20321;-84
2023/12/25 13:32:33;;;;;;;1999.90;999.90;;;;;;;;;;5039976;28;20200;-81
2023/12/25 13:35:01;;;;;;;1999.90;999.90;;;;;;;;;;5071039;28;20198;-82
2023/12/25 13:37:30;;;;;;;1999.90;999.90;;;;;;;;;;5066523;28;20305;-82
2023/12/25 13:40:00;;;;;;;1999.90;999.90;;;;;;;;;;5066308;28;20202;-82
2023/12/25 13:42:28;;;;;;;1999.90;999.90;;;;;;;;;;5049531;28;20661;-81
2023/12/25 13:44:57;;;;;;;1999.90;999.90;;;;;;;;;;5067746;28;20223;-81
2023/12/25 13:47:24;;;;;;;1999.90;999.90;;;;;;;;;;5054558;28;20215;-81